Time;durP1;ratioP1;P1;durP2;ratioP2;P2;SDS_P1;SDS_P2;PMS_P1;PMS_P2;Temp;Humidity;BMP_temperature;BMP_pressure;BME280_temperature;BME280_humidity;BME280_pressure;Samples;Min_cycle;Max_cycle;Signal;HPM_P1;HPM_P2
2023/06/07 00:02:26;;;;;;;13.00;4.60;;;13.10;99.90;;;;;;4948640;28;20060;-87
2023/06/07 00:04:51;;;;;;;15.65;6.53;;;13.00;99.90;;;;;;4971558;28;20036;-88
2023/06/07 00:07:20;;;;;;;13.55;4.90;;;13.00;99.90;;;;;;4984486;28;20118;-88
2023/06/07 00:09:46;;;;;;;12.20;5.40;;;13.00;99.90;;;;;;4980628;28;20066;-88
2023/06/07 00:12:11;;;;;;;11.38;4.82;;;13.00;99.90;;;;;;4962212;28;20051;-88
2023/06/07 00:14:37;;;;;;;15.95;5.30;;;13.00;99.90;;;;;;4992145;28;20038;-88
2023/06/07 00:17:03;;;;;;;13.85;4.57;;;13.00;99.90;;;;;;4985880;28;20042;-88
2023/06/07 00:19:29;;;;;;;13.40;4.97;;;13.00;99.90;;;;;;4968412;28;20043;-89
2023/06/07 00:21:57;;;;;;;12.48;4.47;;;12.90;99.90;;;;;;4979368;28;20110;-88
2023/06/07 00:24:23;;;;;;;10.73;4.03;;;12.90;99.90;;;;;;4963239;28;20042;-88
2023/06/07 00:26:48;;;;;;;10.02;4.80;;;12.90;99.90;;;;;;4962963;28;20413;-89
2023/06/07 00:29:15;;;;;;;14.80;5.35;;;12.80;99.90;;;;;;4962237;28;20146;-89
2023/06/07 00:31:41;;;;;;;10.35;3.95;;;12.70;99.90;;;;;;4970871;28;20093;-88
2023/06/07 00:34:06;;;;;;;11.82;3.97;;;12.80;99.90;;;;;;4998129;28;20045;-89
2023/06/07 00:36:47;;;;;;;10.75;5.15;;;12.80;99.90;;;;;;4972449;28;20038;-88
2023/06/07 00:39:13;;;;;;;17.55;5.38;;;12.70;99.90;;;;;;4970657;28;20101;-88
2023/06/07 00:41:39;;;;;;;11.15;3.88;;;12.70;99.90;;;;;;4933185;28;20039;-88
2023/06/07 00:44:05;;;;;;;10.02;4.25;;;12.70;99.90;;;;;;4963502;28;20039;-88
2023/06/07 00:46:32;;;;;;;14.38;5.00;;;12.70;99.90;;;;;;4988364;28;20047;-88
2023/06/07 00:48:58;;;;;;;15.25;4.00;;;12.70;99.90;;;;;;4980068;28;20394;-89
2023/06/07 00:51:27;;;;;;;14.27;4.55;;;12.60;99.90;;;;;;4959097;28;20047;-89
2023/06/07 00:53:55;;;;;;;16.02;4.63;;;12.70;99.90;;;;;;4979786;28;20035;-88
2023/06/07 00:56:21;;;;;;;13.95;4.85;;;12.80;99.90;;;;;;4961911;28;20819;-88
2023/06/07 00:58:47;;;;;;;8.02;3.90;;;12.60;99.90;;;;;;4958569;28;20047;-89
2023/06/07 01:01:12;;;;;;;11.55;4.18;;;12.70;99.90;;;;;;4948262;28;20057;-89
2023/06/07 01:03:38;;;;;;;16.15;6.05;;;12.60;99.90;;;;;;4974585;28;20094;-89
2023/06/07 01:06:05;;;;;;;14.20;5.10;;;12.70;99.90;;;;;;4971001;28;20841;-88
2023/06/07 01:08:32;;;;;;;13.95;4.95;;;12.70;99.90;;;;;;4976660;28;20042;-90
2023/06/07 01:11:00;;;;;;;16.17;4.45;;;12.70;99.90;;;;;;4956843;28;20058;-90
2023/06/07 01:13:27;;;;;;;10.77;4.88;;;12.70;99.90;;;;;;4959505;28;20172;-89
2023/06/07 01:15:52;;;;;;;12.75;4.22;;;12.60;99.90;;;;;;4968609;28;20081;-89
2023/06/07 01:18:18;;;;;;;13.55;4.97;;;12.60;99.90;;;;;;4955803;28;20035;-90
2023/06/07 01:20:51;;;;;;;11.88;4.53;;;12.50;99.90;;;;;;4963518;28;20075;-89
2023/06/07 01:23:28;;;;;;;14.38;5.22;;;12.50;99.90;;;;;;4983181;28;20042;-88
2023/06/07 01:25:58;;;;;;;9.02;4.07;;;12.40;99.90;;;;;;4980347;28;20046;-89
2023/06/07 01:28:30;;;;;;;13.63;5.50;;;12.40;99.90;;;;;;4972078;28;20504;-89
2023/06/07 01:30:57;;;;;;;13.65;5.13;;;12.30;99.90;;;;;;4964768;28;20113;-89
2023/06/07 01:33:27;;;;;;;13.27;4.75;;;12.40;99.90;;;;;;4976564;28;20077;-89
2023/06/07 01:35:55;;;;;;;11.52;4.68;;;12.30;99.90;;;;;;4987732;28;20047;-90
2023/06/07 01:38:22;;;;;;;16.33;5.43;;;12.30;99.90;;;;;;4980327;28;20509;-89
2023/06/07 01:40:50;;;;;;;10.35;3.97;;;12.30;99.90;;;;;;4976591;28;20504;-89
2023/06/07 01:43:17;;;;;;;11.02;4.13;;;12.30;99.90;;;;;;4967266;28;20047;-89
2023/06/07 01:45:44;;;;;;;11.00;4.32;;;12.30;99.90;;;;;;4967730;28;20095;-89
2023/06/07 01:48:10;;;;;;;13.15;4.80;;;12.30;99.90;;;;;;4968173;28;20069;-89
2023/06/07 01:50:36;;;;;;;9.90;4.20;;;12.30;99.90;;;;;;4964020;28;20046;-90
2023/06/07 01:53:02;;;;;;;11.05;4.63;;;12.30;99.90;;;;;;4979207;28;20047;-89
2023/06/07 01:55:28;;;;;;;10.48;3.83;;;12.20;99.90;;;;;;4975207;28;20054;-89
2023/06/07 01:58:03;;;;;;;11.90;4.55;;;12.20;99.90;;;;;;4987285;28;20485;-89
2023/06/07 02:00:40;;;;;;;12.98;4.18;;;12.20;99.90;;;;;;4956251;28;20070;-89
2023/06/07 02:03:16;;;;;;;12.40;4.15;;;12.20;99.90;;;;;;4961842;28;20054;-89
2023/06/07 02:05:48;;;;;;;12.95;4.65;;;12.20;99.90;;;;;;4975617;28;20046;-90
2023/06/07 02:08:45;;;;;;;10.65;3.30;;;12.20;99.90;;;;;;4963346;28;20130;-89
2023/06/07 02:11:13;;;;;;;12.15;3.55;;;12.20;99.90;;;;;;4958524;28;20051;-89
2023/06/07 02:13:42;;;;;;;15.38;4.85;;;12.20;99.90;;;;;;4984437;28;20042;-90
2023/06/07 02:16:07;;;;;;;13.18;3.78;;;12.20;99.90;;;;;;4980523;28;20058;-89
2023/06/07 02:18:37;;;;;;;9.05;3.75;;;12.20;99.90;;;;;;4983486;28;20045;-89
2023/06/07 02:21:03;;;;;;;9.80;3.58;;;12.20;99.90;;;;;;4974652;28;20042;-89
2023/06/07 02:23:29;;;;;;;13.02;4.40;;;12.30;99.90;;;;;;4987537;28;20038;-89
2023/06/07 02:25:54;;;;;;;10.07;4.72;;;12.30;99.90;;;;;;4980949;28;20050;-89
2023/06/07 02:28:20;;;;;;;19.35;4.60;;;12.20;99.90;;;;;;4968914;28;20070;-89
2023/06/07 02:30:46;;;;;;;12.20;3.85;;;12.20;99.90;;;;;;4978260;28;20405;-89
2023/06/07 02:33:13;;;;;;;9.57;4.13;;;12.20;99.90;;;;;;4965666;28;20090;-90
2023/06/07 02:35:46;;;;;;;12.60;3.95;;;12.20;99.90;;;;;;4975572;28;20039;-89
2023/06/07 02:38:12;;;;;;;12.80;3.42;;;12.20;99.90;;;;;;4980616;28;20074;-90
2023/06/07 02:40:38;;;;;;;9.98;3.95;;;12.30;99.90;;;;;;4987433;28;20543;-90
2023/06/07 02:43:03;;;;;;;15.88;4.40;;;12.30;99.90;;;;;;4986379;28;20122;-88
2023/06/07 02:45:29;;;;;;;10.13;4.15;;;12.30;99.90;;;;;;4964532;28;20066;-89
2023/06/07 02:47:55;;;;;;;13.77;4.47;;;12.30;99.90;;;;;;4976527;28;20128;-90
2023/06/07 02:50:23;;;;;;;18.23;4.15;;;12.30;99.90;;;;;;4968042;28;20465;-89
2023/06/07 02:52:50;;;;;;;12.63;4.18;;;12.30;99.90;;;;;;4964427;28;20073;-89
2023/06/07 02:55:16;;;;;;;10.77;4.03;;;12.20;99.90;;;;;;4987658;28;20093;-90
2023/06/07 02:57:42;;;;;;;13.70;4.65;;;12.20;99.90;;;;;;4985249;28;20077;-90
2023/06/07 03:00:11;;;;;;;15.20;5.25;;;12.20;99.90;;;;;;4971125;28;20499;-90
2023/06/07 03:02:38;;;;;;;14.25;4.65;;;12.20;99.90;;;;;;4977462;28;20093;-88
2023/06/07 03:05:05;;;;;;;12.73;4.45;;;12.20;99.90;;;;;;4966482;28;20050;-90
2023/06/07 03:07:32;;;;;;;11.88;3.58;;;12.30;99.90;;;;;;4974071;28;20043;-89
2023/06/07 03:09:58;;;;;;;12.18;4.35;;;12.30;99.90;;;;;;4964656;28;20039;-89
2023/06/07 03:12:24;;;;;;;15.88;4.18;;;12.30;99.90;;;;;;4967370;28;20513;-89
2023/06/07 03:14:50;;;;;;;11.65;3.92;;;12.30;99.90;;;;;;4969869;28;20054;-89
2023/06/07 03:17:17;;;;;;;12.52;4.10;;;12.30;99.90;;;;;;4974532;28;20038;-89
2023/06/07 03:19:43;;;;;;;12.18;4.57;;;12.30;99.90;;;;;;4968066;28;20046;-89
2023/06/07 03:22:09;;;;;;;12.88;3.17;;;12.30;99.90;;;;;;4982800;28;20070;-89
2023/06/07 03:24:38;;;;;;;12.52;4.55;;;12.40;99.90;;;;;;4969380;28;20042;-89
2023/06/07 03:27:10;;;;;;;14.15;4.30;;;12.40;99.90;;;;;;4975534;28;20097;-90
2023/06/07 03:29:36;;;;;;;12.85;4.05;;;12.40;99.90;;;;;;4980676;28;20069;-90
2023/06/07 03:32:02;;;;;;;14.45;3.47;;;12.40;99.90;;;;;;4965171;28;20070;-89
2023/06/07 03:34:29;;;;;;;12.32;4.43;;;12.40;99.90;;;;;;4990704;28;20038;-89
2023/06/07 03:36:55;;;;;;;11.85;3.78;;;12.40;99.90;;;;;;4975106;28;20047;-88
2023/06/07 03:39:21;;;;;;;17.95;4.20;;;12.30;99.90;;;;;;4976137;28;20169;-89
2023/06/07 03:41:47;;;;;;;15.38;4.40;;;12.40;99.90;;;;;;4984035;28;20459;-89
2023/06/07 03:44:13;;;;;;;14.82;4.28;;;12.40;99.90;;;;;;4978805;28;20043;-89
2023/06/07 03:46:38;;;;;;;14.00;3.90;;;12.40;99.90;;;;;;4965856;28;20047;-89
2023/06/07 03:49:04;;;;;;;13.40;4.30;;;12.40;99.90;;;;;;4965047;28;20059;-88
2023/06/07 03:51:32;;;;;;;11.55;4.22;;;12.40;99.90;;;;;;4972476;28;20070;-89
2023/06/07 03:53:58;;;;;;;14.10;3.42;;;12.40;99.90;;;;;;4972954;28;20038;-89
2023/06/07 03:56:25;;;;;;;10.50;3.50;;;12.50;99.90;;;;;;4967165;28;20105;-89
2023/06/07 03:58:53;;;;;;;10.85;3.67;;;12.50;99.90;;;;;;4977032;28;20054;-89
2023/06/07 04:01:19;;;;;;;15.27;5.13;;;12.40;99.90;;;;;;4971648;28;20501;-89
2023/06/07 04:03:45;;;;;;;12.60;3.40;;;12.50;99.90;;;;;;4997662;28;20049;-90
2023/06/07 04:06:12;;;;;;;12.70;3.90;;;12.50;99.90;;;;;;4981353;28;20092;-89
2023/06/07 04:08:37;;;;;;;14.13;5.10;;;12.60;99.90;;;;;;4984541;28;20042;-89
2023/06/07 04:11:03;;;;;;;13.75;4.82;;;12.50;99.90;;;;;;4976431;28;20042;-90
2023/06/07 04:13:32;;;;;;;11.38;4.32;;;12.50;99.90;;;;;;4991844;28;20045;-90
2023/06/07 04:15:58;;;;;;;12.93;4.20;;;12.50;99.90;;;;;;4969668;28;20047;-89
2023/06/07 04:18:23;;;;;;;14.52;4.95;;;12.60;99.90;;;;;;4989353;28;20047;-89
2023/06/07 04:20:49;;;;;;;16.08;5.75;;;12.60;99.90;;;;;;4972559;28;20042;-90
2023/06/07 04:23:15;;;;;;;10.02;3.60;;;12.60;99.90;;;;;;4986098;28;20043;-89
2023/06/07 04:25:41;;;;;;;13.50;3.47;;;12.60;99.90;;;;;;4997567;28;20034;-90
2023/06/07 04:28:10;;;;;;;12.48;4.10;;;12.60;99.90;;;;;;4980699;28;20034;-90
2023/06/07 04:30:36;;;;;;;12.65;3.97;;;12.70;99.90;;;;;;4985006;28;20053;-88
2023/06/07 04:33:10;;;;;;;13.50;3.60;;;12.80;99.90;;;;;;4973635;28;20043;-90
2023/06/07 04:35:42;;;;;;;20.17;5.78;;;12.70;99.90;;;;;;4995089;28;20050;-90
2023/06/07 04:38:20;;;;;;;18.55;4.60;;;12.80;99.90;;;;;;4981239;28;20039;-89
2023/06/07 04:40:49;;;;;;;14.45;4.82;;;12.80;99.90;;;;;;4975069;28;20045;-90
2023/06/07 04:43:19;;;;;;;16.23;4.30;;;12.80;99.90;;;;;;4972355;28;20046;-89
2023/06/07 04:45:54;;;;;;;11.52;3.40;;;12.80;99.90;;;;;;4989886;28;20107;-89
2023/06/07 04:48:26;;;;;;;13.77;4.10;;;12.80;99.90;;;;;;4961355;28;20034;-90
2023/06/07 04:50:53;;;;;;;18.83;4.43;;;12.90;99.90;;;;;;4966715;28;20102;-90
2023/06/07 04:53:19;;;;;;;14.25;4.32;;;12.90;99.90;;;;;;4944210;28;20046;-89
2023/06/07 04:55:50;;;;;;;11.57;3.90;;;12.90;99.90;;;;;;4961403;28;20401;-90
2023/06/07 04:58:16;;;;;;;11.70;4.18;;;13.00;99.90;;;;;;4978857;28;20042;-86
2023/06/07 05:00:43;;;;;;;14.02;3.55;;;12.90;99.90;;;;;;4962660;28;20070;-87
2023/06/07 05:03:13;;;;;;;13.50;4.20;;;13.00;99.90;;;;;;4958341;28;20122;-88
2023/06/07 05:05:42;;;;;;;16.80;4.00;;;13.00;99.90;;;;;;4993284;28;20046;-89
2023/06/07 05:08:09;;;;;;;13.05;3.97;;;13.00;99.90;;;;;;4968954;28;20034;-89
2023/06/07 05:10:34;;;;;;;7.90;3.33;;;13.00;99.90;;;;;;4942730;28;20042;-90
2023/06/07 05:13:00;;;;;;;13.27;3.63;;;13.10;99.90;;;;;;4976799;28;20046;-90
2023/06/07 05:15:27;;;;;;;21.35;4.47;;;13.20;99.90;;;;;;4962978;28;20047;-90
2023/06/07 05:17:53;;;;;;;14.73;3.70;;;13.20;99.90;;;;;;4949111;28;20036;-90
2023/06/07 05:20:24;;;;;;;19.45;4.55;;;13.20;99.90;;;;;;4973618;28;20035;-90
2023/06/07 05:22:53;;;;;;;12.02;3.08;;;13.20;99.90;;;;;;4946892;28;20093;-90
2023/06/07 05:25:20;;;;;;;12.73;4.03;;;13.20;99.90;;;;;;4930116;28;20270;-88
2023/06/07 05:27:49;;;;;;;9.13;2.97;;;13.20;99.90;;;;;;4986122;28;20121;-88
2023/06/07 05:30:15;;;;;;;10.13;3.00;;;13.30;99.90;;;;;;4986555;28;20046;-88
2023/06/07 05:32:42;;;;;;;12.00;3.92;;;13.30;99.90;;;;;;4971203;28;20039;-88
2023/06/07 05:35:08;;;;;;;14.93;3.65;;;13.40;99.90;;;;;;4957490;28;20042;-89
2023/06/07 05:37:37;;;;;;;14.05;3.10;;;13.40;99.90;;;;;;4925724;28;20046;-89
2023/06/07 05:40:05;;;;;;;9.40;2.95;;;13.40;99.90;;;;;;4942182;28;20137;-90
2023/06/07 05:42:30;;;;;;;14.40;3.78;;;13.40;99.90;;;;;;4960589;28;20039;-89
2023/06/07 05:44:56;;;;;;;13.32;4.65;;;13.40;99.90;;;;;;4944636;28;20126;-88
2023/06/07 05:47:25;;;;;;;12.65;4.00;;;13.50;99.90;;;;;;4943484;28;20053;-88
2023/06/07 05:49:52;;;;;;;12.93;3.70;;;13.50;99.90;;;;;;4959950;28;20046;-87
2023/06/07 05:52:18;;;;;;;11.23;2.92;;;13.50;99.90;;;;;;4963126;28;20545;-88
2023/06/07 05:54:53;;;;;;;10.82;3.05;;;13.50;99.90;;;;;;4963537;28;20083;-84
2023/06/07 05:57:19;;;;;;;7.35;3.08;;;13.50;99.90;;;;;;4943663;28;20482;-85
2023/06/07 05:59:45;;;;;;;8.63;2.75;;;13.50;99.90;;;;;;4961629;28;20078;-86
2023/06/07 06:02:11;;;;;;;13.60;3.40;;;13.50;99.90;;;;;;4961137;28;20043;-83
2023/06/07 06:04:37;;;;;;;13.70;3.80;;;13.50;99.90;;;;;;4943819;28;20043;-87
2023/06/07 06:07:02;;;;;;;13.68;3.45;;;13.50;99.90;;;;;;4955651;28;20042;-87
2023/06/07 06:09:29;;;;;;;20.70;3.90;;;13.60;99.90;;;;;;4961460;28;20042;-87
2023/06/07 06:11:55;;;;;;;11.13;3.50;;;13.60;99.90;;;;;;4940789;28;20050;-86
2023/06/07 06:14:25;;;;;;;14.60;3.40;;;13.60;99.90;;;;;;4974735;28;20556;-86
2023/06/07 06:16:51;;;;;;;14.60;3.10;;;13.60;99.90;;;;;;4976904;28;20509;-86
2023/06/07 06:19:17;;;;;;;10.70;3.15;;;13.70;99.90;;;;;;4975263;28;20034;-86
2023/06/07 06:21:42;;;;;;;10.45;3.22;;;13.70;99.90;;;;;;4958999;28;20474;-86
2023/06/07 06:24:08;;;;;;;12.75;2.95;;;13.70;99.90;;;;;;4955786;28;20045;-84
2023/06/07 06:26:34;;;;;;;16.48;3.95;;;13.70;99.90;;;;;;4971124;28;20076;-86
2023/06/07 06:29:00;;;;;;;15.75;3.50;;;13.70;99.90;;;;;;4987578;28;20054;-86
2023/06/07 06:31:26;;;;;;;9.30;2.85;;;13.70;99.90;;;;;;4982744;28;20047;-86
2023/06/07 06:33:52;;;;;;;8.75;3.45;;;13.80;99.90;;;;;;4971231;28;20372;-86
2023/06/07 06:36:18;;;;;;;12.80;3.40;;;13.90;99.90;;;;;;4980940;28;20038;-86
2023/06/07 06:38:43;;;;;;;11.75;3.58;;;13.90;99.90;;;;;;4956236;28;20058;-86
2023/06/07 06:41:13;;;;;;;12.30;3.47;;;13.90;99.90;;;;;;4983662;28;20038;-86
2023/06/07 06:43:39;;;;;;;11.30;3.35;;;13.90;99.90;;;;;;4972996;28;20109;-85
2023/06/07 06:46:05;;;;;;;9.63;3.35;;;13.90;99.90;;;;;;4950276;28;20039;-87
2023/06/07 06:48:30;;;;;;;9.77;2.95;;;14.00;99.90;;;;;;4964074;28;20046;-86
2023/06/07 06:50:56;;;;;;;12.15;3.70;;;14.00;99.90;;;;;;4982200;28;20389;-86
2023/06/07 06:53:22;;;;;;;11.00;3.35;;;14.00;99.90;;;;;;4963334;28;20049;-86
2023/06/07 06:55:48;;;;;;;11.52;3.78;;;14.00;99.90;;;;;;4958236;28;20062;-86
2023/06/07 06:58:14;;;;;;;13.48;4.10;;;14.00;99.90;;;;;;4967086;28;20111;-86
2023/06/07 07:00:40;;;;;;;11.52;3.63;;;14.00;99.90;;;;;;4986719;28;20061;-86
2023/06/07 07:03:06;;;;;;;12.95;3.80;;;14.00;99.90;;;;;;4962498;28;20377;-87
2023/06/07 07:05:31;;;;;;;11.90;3.70;;;14.20;99.90;;;;;;4972411;28;20405;-86
2023/06/07 07:07:57;;;;;;;11.90;3.35;;;14.20;99.90;;;;;;4981119;28;20494;-87
2023/06/07 07:10:23;;;;;;;11.93;3.35;;;14.30;99.90;;;;;;4980954;28;20490;-86
2023/06/07 07:12:51;;;;;;;10.00;3.50;;;14.30;99.90;;;;;;4961282;28;20074;-88
2023/06/07 07:15:19;;;;;;;13.02;4.07;;;14.50;99.90;;;;;;4965475;28;20097;-88
2023/06/07 07:17:47;;;;;;;11.30;3.28;;;14.50;99.90;;;;;;4940069;28;20053;-88
2023/06/07 07:20:13;;;;;;;9.48;3.85;;;14.60;99.90;;;;;;4957226;28;20090;-89
2023/06/07 07:22:39;;;;;;;10.70;3.17;;;14.80;99.90;;;;;;4962353;28;20166;-89
2023/06/07 07:25:06;;;;;;;11.82;3.38;;;15.10;99.90;;;;;;4967207;28;20066;-89
2023/06/07 07:27:33;;;;;;;11.20;3.38;;;15.30;99.90;;;;;;4936242;28;20050;-88
2023/06/07 07:29:59;;;;;;;9.98;3.35;;;15.60;99.90;;;;;;4971813;28;20039;-88
2023/06/07 07:32:25;;;;;;;14.80;4.60;;;15.60;99.90;;;;;;4947964;28;20500;-88
2023/06/07 07:34:56;;;;;;;9.38;3.55;;;15.60;99.90;;;;;;4968517;28;20114;-88
2023/06/07 07:37:21;;;;;;;9.82;3.50;;;15.70;99.90;;;;;;4957772;28;20405;-90
2023/06/07 07:39:47;;;;;;;13.27;2.92;;;15.70;99.90;;;;;;4973767;28;20036;-88
2023/06/07 07:42:13;;;;;;;11.38;3.10;;;15.70;99.90;;;;;;4977292;28;20114;-88
2023/06/07 07:44:39;;;;;;;10.38;3.70;;;15.80;99.90;;;;;;4982064;28;20043;-88
2023/06/07 07:47:05;;;;;;;8.52;2.88;;;15.90;99.90;;;;;;4974891;28;20039;-86
2023/06/07 07:49:31;;;;;;;13.30;3.40;;;16.20;99.90;;;;;;4963229;28;20038;-87
2023/06/07 07:51:57;;;;;;;10.63;3.05;;;16.40;99.90;;;;;;4990318;28;20093;-87
2023/06/07 07:54:23;;;;;;;9.70;2.85;;;16.60;99.90;;;;;;4954015;28;20035;-87
2023/06/07 07:56:49;;;;;;;9.50;3.25;;;16.80;99.90;;;;;;4974415;28;20486;-87
2023/06/07 07:59:15;;;;;;;11.00;3.42;;;16.90;99.90;;;;;;4964884;28;20058;-87
2023/06/07 08:01:40;;;;;;;14.68;4.38;;;17.10;99.90;;;;;;4961307;28;20055;-86
2023/06/07 08:04:06;;;;;;;9.65;2.72;;;17.20;99.90;;;;;;4949018;28;20095;-87
2023/06/07 08:06:32;;;;;;;12.13;3.28;;;17.30;99.90;;;;;;4950414;28;20470;-87
2023/06/07 08:08:58;;;;;;;12.75;3.35;;;17.30;99.90;;;;;;4952526;28;20045;-86
2023/06/07 08:11:25;;;;;;;9.52;3.00;;;17.40;99.90;;;;;;4967546;28;20090;-86
2023/06/07 08:13:51;;;;;;;10.23;3.50;;;17.50;99.90;;;;;;4958618;28;20050;-86
2023/06/07 08:16:17;;;;;;;12.57;3.40;;;17.60;99.90;;;;;;4952427;28;20044;-86
2023/06/07 08:18:44;;;;;;;7.53;3.40;;;17.60;99.90;;;;;;4956174;28;20051;-87
2023/06/07 08:21:12;;;;;;;7.55;3.30;;;17.70;99.90;;;;;;4963824;28;20121;-86
2023/06/07 08:23:38;;;;;;;11.20;3.20;;;17.80;99.90;;;;;;4970834;28;20169;-87
2023/06/07 08:26:04;;;;;;;11.63;3.15;;;17.80;99.90;;;;;;4937902;29;20101;-86
2023/06/07 08:28:42;;;;;;;14.30;3.60;;;17.80;99.90;;;;;;4959081;28;20434;-87
2023/06/07 08:31:10;;;;;;;8.38;2.55;;;17.90;99.90;;;;;;4946732;28;20054;-87
2023/06/07 08:33:36;;;;;;;7.82;3.00;;;17.90;99.90;;;;;;4944464;28;20141;-87
2023/06/07 08:36:05;;;;;;;10.38;3.38;;;17.90;99.90;;;;;;4962711;28;20035;-86
2023/06/07 08:38:32;;;;;;;10.88;3.40;;;18.00;99.90;;;;;;4962208;28;20043;-90
2023/06/07 08:41:00;;;;;;;11.05;3.22;;;18.00;99.90;;;;;;4945896;29;20047;-91
2023/06/07 08:43:26;;;;;;;11.40;3.65;;;18.10;99.90;;;;;;4965503;28;20035;-91
2023/06/07 08:45:52;;;;;;;11.82;3.30;;;18.20;99.90;;;;;;4961730;28;20047;-91
2023/06/07 08:48:18;;;;;;;8.48;3.10;;;18.10;99.90;;;;;;4952543;28;20039;-90
2023/06/07 08:50:49;;;;;;;8.80;3.03;;;18.30;99.90;;;;;;4962929;28;20035;-91
2023/06/07 08:53:25;;;;;;;10.80;3.13;;;18.40;99.90;;;;;;4957323;28;20043;-90
2023/06/07 08:55:53;;;;;;;11.60;3.08;;;18.50;99.90;;;;;;4952932;28;20038;-90
2023/06/07 08:58:20;;;;;;;13.07;3.65;;;18.60;99.90;;;;;;4956279;28;20035;-89
2023/06/07 09:00:47;;;;;;;10.10;3.85;;;18.60;99.90;;;;;;4960308;28;20054;-90
2023/06/07 09:03:12;;;;;;;9.68;3.30;;;18.60;99.90;;;;;;4959475;28;20498;-90
2023/06/07 09:05:38;;;;;;;11.88;3.85;;;18.70;99.90;;;;;;4955618;28;20119;-90
2023/06/07 09:08:03;;;;;;;15.30;3.75;;;18.70;99.90;;;;;;4958670;28;20115;-90
2023/06/07 09:10:30;;;;;;;9.77;3.42;;;18.80;99.90;;;;;;4953336;28;20039;-90
2023/06/07 09:12:55;;;;;;;9.48;3.47;;;18.90;99.90;;;;;;4956716;28;20054;-90
2023/06/07 09:15:21;;;;;;;11.50;4.22;;;18.90;99.90;;;;;;4957715;28;20097;-90
2023/06/07 09:18:04;;;;;;;11.20;3.55;;;18.90;99.90;;;;;;4963665;28;20069;-90
2023/06/07 09:20:31;;;;;;;11.32;4.15;;;19.10;99.90;;;;;;4951997;28;20131;-90
2023/06/07 09:23:05;;;;;;;11.32;4.10;;;19.10;99.90;;;;;;4955854;28;20070;-91
2023/06/07 09:25:31;;;;;;;11.75;3.47;;;19.20;99.90;;;;;;4947604;28;20128;-90
2023/06/07 09:27:57;;;;;;;13.13;3.72;;;19.20;99.90;;;;;;4947963;28;20120;-90
2023/06/07 09:30:23;;;;;;;15.95;4.22;;;19.40;99.90;;;;;;4955576;28;20547;-91
2023/06/07 09:32:49;;;;;;;11.05;3.35;;;19.40;99.90;;;;;;4949576;28;20042;-90
2023/06/07 09:35:18;;;;;;;16.20;3.75;;;19.50;99.90;;;;;;4967662;28;20143;-91
2023/06/07 09:37:52;;;;;;;9.20;3.65;;;19.50;99.90;;;;;;4954026;28;20052;-91
2023/06/07 09:40:18;;;;;;;8.40;3.92;;;19.60;99.90;;;;;;4953462;28;20046;-90
2023/06/07 09:42:44;;;;;;;9.27;3.53;;;19.70;99.90;;;;;;4953407;28;20039;-90
2023/06/07 09:45:15;;;;;;;11.13;3.45;;;19.80;99.90;;;;;;4953882;28;20054;-90
2023/06/07 09:47:44;;;;;;;12.85;4.30;;;19.90;99.90;;;;;;4951384;28;20047;-90
2023/06/07 09:50:12;;;;;;;10.95;3.95;;;20.00;99.90;;;;;;4949856;28;20448;-90
2023/06/07 09:52:38;;;;;;;12.48;3.85;;;20.10;99.90;;;;;;4951185;28;20082;-91
2023/06/07 09:55:08;;;;;;;7.93;3.67;;;20.10;99.90;;;;;;4949285;28;20236;-89
2023/06/07 09:57:37;;;;;;;8.55;3.58;;;20.20;99.90;;;;;;4950713;28;20071;-90
2023/06/07 10:00:14;;;;;;;9.98;3.85;;;20.30;99.90;;;;;;4971680;28;20058;-90
2023/06/07 10:02:44;;;;;;;10.43;4.05;;;20.30;99.90;;;;;;4975210;28;20042;-90
2023/06/07 10:05:15;;;;;;;12.02;3.95;;;20.40;99.90;;;;;;4951925;28;20496;-91
2023/06/07 10:07:56;;;;;;;13.45;4.15;;;20.50;99.90;;;;;;4971040;28;20101;-91
2023/06/07 10:10:24;;;;;;;7.38;3.03;;;20.60;99.90;;;;;;4962813;28;20039;-91
2023/06/07 10:12:51;;;;;;;8.77;3.50;;;20.70;99.90;;;;;;4983983;28;20121;-90
2023/06/07 10:15:24;;;;;;;9.98;4.10;;;20.70;99.90;;;;;;4986459;28;20072;-90
2023/06/07 10:18:23;;;;;;;10.77;3.90;;;20.80;99.90;;;;;;4981649;28;20073;-91
2023/06/07 10:20:57;;;;;;;8.10;3.60;;;20.80;99.90;;;;;;4980026;28;20038;-91
2023/06/07 10:23:33;;;;;;;8.43;3.13;;;20.80;99.90;;;;;;4987339;28;20034;-91
2023/06/07 10:26:04;;;;;;;10.63;4.13;;;20.90;99.90;;;;;;4967358;28;20050;-91
2023/06/07 10:28:43;;;;;;;11.75;3.90;;;21.00;99.90;;;;;;4973687;28;20050;-91
2023/06/07 10:31:12;;;;;;;14.23;4.28;;;21.10;99.90;;;;;;4961593;28;20043;-91
2023/06/07 10:33:38;;;;;;;7.13;3.53;;;21.20;99.90;;;;;;4973400;28;20054;-90
2023/06/07 10:36:07;;;;;;;13.18;4.18;;;21.20;99.90;;;;;;4958328;28;20042;-91
2023/06/07 10:38:33;;;;;;;10.40;3.53;;;21.30;99.90;;;;;;4954674;28;20466;-90
2023/06/07 10:41:01;;;;;;;13.30;4.47;;;21.20;99.90;;;;;;4967398;28;20050;-90
2023/06/07 10:43:29;;;;;;;10.65;3.33;;;21.30;99.90;;;;;;4990600;28;20043;-91
2023/06/07 10:46:20;;;;;;;10.80;4.68;;;21.40;99.90;;;;;;4964821;28;20050;-91
2023/06/07 10:48:46;;;;;;;7.82;3.60;;;21.50;99.90;;;;;;4964573;28;20138;-91
2023/06/07 10:51:15;;;;;;;12.82;4.07;;;21.50;99.90;;;;;;4968153;28;20038;-91
2023/06/07 10:53:56;;;;;;;10.57;3.70;;;21.60;99.90;;;;;;4963442;28;20118;-92
2023/06/07 10:56:31;;;;;;;11.77;4.10;;;21.70;99.90;;;;;;4976216;28;20038;-91
2023/06/07 10:59:17;;;;;;;7.95;3.38;;;21.80;99.90;;;;;;4960827;28;20066;-91
2023/06/07 11:01:46;;;;;;;11.38;3.95;;;21.80;99.90;;;;;;4958399;28;20083;-91
2023/06/07 11:04:39;;;;;;;6.57;3.40;;;21.90;99.90;;;;;;4962773;28;20592;-92
2023/06/07 11:07:30;;;;;;;10.02;3.70;;;22.00;99.90;;;;;;4970864;28;20070;-91
2023/06/07 11:10:02;;;;;;;10.93;4.28;;;22.00;99.90;;;;;;4957610;28;20053;-91
2023/06/07 11:12:46;;;;;;;11.40;4.22;;;22.00;99.90;;;;;;4961108;28;20050;-92
2023/06/07 11:15:18;;;;;;;9.23;3.63;;;22.10;99.90;;;;;;4965261;28;20518;-92
2023/06/07 11:17:53;;;;;;;12.00;4.65;;;22.10;99.90;;;;;;4974768;28;20087;-92
2023/06/07 11:20:48;;;;;;;12.48;4.22;;;22.20;99.90;;;;;;4987816;28;20547;-91
2023/06/07 11:23:28;;;;;;;13.10;4.53;;;22.20;99.90;;;;;;4960438;28;20059;-91
2023/06/07 11:25:58;;;;;;;9.90;4.03;;;22.30;99.90;;;;;;4976289;28;20525;-92
2023/06/07 11:28:29;;;;;;;17.83;4.57;;;22.40;99.90;;;;;;4936489;28;20042;-93
2023/06/07 11:30:55;;;;;;;13.98;4.55;;;22.50;99.90;;;;;;4956136;28;20069;-91
2023/06/07 11:33:21;;;;;;;12.95;4.05;;;22.60;99.90;;;;;;4965214;28;20053;-92
2023/06/07 11:35:54;;;;;;;13.35;5.20;;;22.70;99.90;;;;;;4965821;28;20050;-92
2023/06/07 11:38:21;;;;;;;10.90;4.03;;;22.70;99.80;;;;;;4959114;28;20046;-92
2023/06/07 11:40:47;;;;;;;10.40;4.63;;;22.80;99.70;;;;;;4965638;28;20051;-92
2023/06/07 11:43:14;;;;;;;10.60;3.70;;;22.80;99.70;;;;;;4975985;28;20042;-91
2023/06/07 11:45:42;;;;;;;11.75;5.10;;;22.90;99.80;;;;;;4984719;28;20038;-91
2023/06/07 11:48:08;;;;;;;9.20;3.78;;;22.90;99.10;;;;;;4956827;28;20081;-92
2023/06/07 11:50:38;;;;;;;14.57;4.15;;;22.80;99.50;;;;;;4979406;28;20144;-89
2023/06/07 11:53:05;;;;;;;14.68;4.43;;;22.90;99.90;;;;;;4964569;28;20047;-87
2023/06/07 11:55:31;;;;;;;12.02;4.35;;;23.00;99.90;;;;;;4978903;28;20137;-87
2023/06/07 11:58:03;;;;;;;11.00;4.45;;;23.20;99.40;;;;;;4959012;28;20042;-90
2023/06/07 12:00:34;;;;;;;11.07;3.78;;;23.30;98.00;;;;;;4969965;28;20061;-92
2023/06/07 12:03:01;;;;;;;10.52;4.25;;;23.20;98.00;;;;;;4952074;28;20066;-90
2023/06/07 12:05:30;;;;;;;11.07;3.88;;;23.20;98.70;;;;;;4967021;28;20065;-91
2023/06/07 12:08:04;;;;;;;12.68;3.60;;;23.10;98.20;;;;;;4955614;28;20054;-91
2023/06/07 12:10:31;;;;;;;11.57;4.05;;;23.20;98.20;;;;;;4978406;28;20038;-89
2023/06/07 12:13:16;;;;;;;9.43;4.05;;;23.30;98.60;;;;;;4952312;28;20046;-93
2023/06/07 12:15:52;;;;;;;11.13;3.47;;;23.40;98.30;;;;;;4956030;28;20492;-95
2023/06/07 12:18:20;;;;;;;8.75;3.42;;;23.30;97.90;;;;;;4982394;28;20038;-92
2023/06/07 12:20:47;;;;;;;12.63;4.05;;;23.30;98.10;;;;;;4988596;28;20065;-93
2023/06/07 12:23:14;;;;;;;9.75;4.40;;;23.40;98.30;;;;;;4985330;28;20080;-89
2023/06/07 12:25:41;;;;;;;10.85;3.78;;;23.50;98.60;;;;;;4976700;28;20043;-89
2023/06/07 12:28:09;;;;;;;9.40;4.05;;;23.50;98.30;;;;;;4975897;28;20037;-88
2023/06/07 12:30:38;;;;;;;9.60;4.15;;;23.60;98.20;;;;;;4976161;28;20055;-89
2023/06/07 12:33:04;;;;;;;12.32;4.30;;;23.70;98.70;;;;;;4966299;28;20042;-88
2023/06/07 12:35:38;;;;;;;11.00;4.32;;;23.80;98.30;;;;;;4981243;28;20049;-88
2023/06/07 12:38:04;;;;;;;13.07;4.63;;;23.80;98.00;;;;;;4982082;28;20129;-88
2023/06/07 12:40:30;;;;;;;12.60;4.13;;;23.90;98.20;;;;;;4987971;28;20046;-91
2023/06/07 12:42:56;;;;;;;11.93;4.25;;;23.80;97.90;;;;;;4968749;28;20054;-87
2023/06/07 12:45:22;;;;;;;12.15;4.30;;;23.80;97.80;;;;;;4980341;28;20043;-87